Time;durP1;ratioP1;P1;durP2;ratioP2;P2;SDS_P1;SDS_P2;PMS_P1;PMS_P2;Temp;Humidity;BMP_temperature;BMP_pressure;BME280_temperature;BME280_humidity;BME280_pressure;Samples;Min_cycle;Max_cycle;Signal;HPM_P1;HPM_P2
2023/04/20 00:01:00;;;;;;;3.33;2.90;;;;;;;;;;4967097;28;20043;-42
2023/04/20 00:03:26;;;;;;;3.67;3.13;;;;;;;;;;4966240;28;20049;-41
2023/04/20 00:05:52;;;;;;;5.57;2.67;;;;;;;;;;4965049;28;20054;-43
2023/04/20 00:08:17;;;;;;;6.88;2.72;;;;;;;;;;4967534;28;20033;-43
2023/04/20 00:10:44;;;;;;;4.47;3.15;;;;;;;;;;4966711;28;20039;-42
2023/04/20 00:13:09;;;;;;;5.28;2.85;;;;;;;;;;4963827;28;20472;-43
2023/04/20 00:15:34;;;;;;;3.20;2.78;;;;;;;;;;4966817;28;20062;-42
2023/04/20 00:18:00;;;;;;;3.22;2.90;;;;;;;;;;4965312;28;20416;-50
2023/04/20 00:20:25;;;;;;;7.88;3.50;;;;;;;;;;4961785;28;20047;-51
2023/04/20 00:22:51;;;;;;;3.42;2.88;;;;;;;;;;4964059;28;20425;-45
2023/04/20 00:25:16;;;;;;;5.15;3.08;;;;;;;;;;4962540;28;20038;-49
2023/04/20 00:27:43;;;;;;;3.30;2.83;;;;;;;;;;4966784;28;20031;-45
2023/04/20 00:30:09;;;;;;;4.53;3.03;;;;;;;;;;4966130;28;20035;-45
2023/04/20 00:32:34;;;;;;;4.68;2.83;;;;;;;;;;4966670;28;20038;-46
2023/04/20 00:35:00;;;;;;;4.35;2.97;;;;;;;;;;4963962;28;20022;-50
2023/04/20 00:37:25;;;;;;;5.47;2.90;;;;;;;;;;4966061;28;20487;-50
2023/04/20 00:39:51;;;;;;;3.42;3.13;;;;;;;;;;4969079;28;20057;-42
2023/04/20 00:42:16;;;;;;;6.07;3.40;;;;;;;;;;4970448;28;20031;-47
2023/04/20 00:44:42;;;;;;;3.50;2.83;;;;;;;;;;4970124;28;20114;-46
2023/04/20 00:47:07;;;;;;;8.93;2.97;;;;;;;;;;4967989;28;20039;-50
2023/04/20 00:49:32;;;;;;;5.45;3.88;;;;;;;;;;4968588;28;20117;-43
2023/04/20 00:51:59;;;;;;;6.78;3.30;;;;;;;;;;4970102;28;20043;-43
2023/04/20 00:54:29;;;;;;;4.47;3.03;;;;;;;;;;4967454;28;20045;-44
2023/04/20 00:56:56;;;;;;;3.25;2.92;;;;;;;;;;4952508;28;20043;-49
2023/04/20 00:59:22;;;;;;;3.83;3.42;;;;;;;;;;4954031;28;20027;-41
2023/04/20 01:01:47;;;;;;;6.03;3.28;;;;;;;;;;4962136;28;20046;-49
2023/04/20 01:04:13;;;;;;;4.45;3.38;;;;;;;;;;4969025;28;20098;-48
2023/04/20 01:06:38;;;;;;;6.28;3.90;;;;;;;;;;4964559;28;20101;-43
2023/04/20 01:09:04;;;;;;;8.90;3.80;;;;;;;;;;4968134;28;20035;-47
2023/04/20 01:11:30;;;;;;;3.60;3.10;;;;;;;;;;4965512;28;20061;-45
2023/04/20 01:13:55;;;;;;;5.43;3.53;;;;;;;;;;4959758;28;20055;-45
2023/04/20 01:16:21;;;;;;;5.68;3.63;;;;;;;;;;4967573;28;20506;-49
2023/04/20 01:18:48;;;;;;;6.45;3.55;;;;;;;;;;4970299;28;20027;-48
2023/04/20 01:21:16;;;;;;;5.53;3.58;;;;;;;;;;4967083;28;20443;-47
2023/04/20 01:23:42;;;;;;;5.18;4.00;;;;;;;;;;4967642;28;20117;-50
2023/04/20 01:26:09;;;;;;;6.80;3.60;;;;;;;;;;4963920;28;20143;-47
2023/04/20 01:28:35;;;;;;;7.50;3.80;;;;;;;;;;4970291;28;20042;-41
2023/04/20 01:31:02;;;;;;;4.00;3.60;;;;;;;;;;4971209;28;20042;-47
2023/04/20 01:33:27;;;;;;;4.75;3.65;;;;;;;;;;4965942;28;21500;-43
2023/04/20 01:35:53;;;;;;;9.70;4.43;;;;;;;;;;4967755;28;20054;-42
2023/04/20 01:38:20;;;;;;;3.95;3.60;;;;;;;;;;4969223;28;20031;-46
2023/04/20 01:40:45;;;;;;;9.90;3.78;;;;;;;;;;4968612;28;20046;-48
2023/04/20 01:43:11;;;;;;;5.38;3.70;;;;;;;;;;4966448;28;20060;-47
2023/04/20 01:45:36;;;;;;;6.07;3.80;;;;;;;;;;4967329;28;20151;-41
2023/04/20 01:48:02;;;;;;;4.38;3.55;;;;;;;;;;4968509;28;20035;-46
2023/04/20 01:50:27;;;;;;;5.93;3.83;;;;;;;;;;4966801;28;20053;-45
2023/04/20 01:52:53;;;;;;;4.30;3.70;;;;;;;;;;4966092;28;20034;-41
2023/04/20 01:55:18;;;;;;;10.38;3.60;;;;;;;;;;4963994;28;20019;-44
2023/04/20 01:57:44;;;;;;;7.38;3.70;;;;;;;;;;4951339;28;20114;-45
2023/04/20 02:00:10;;;;;;;5.32;3.17;;;;;;;;;;4951414;28;20035;-46
2023/04/20 02:02:36;;;;;;;5.22;3.70;;;;;;;;;;4961076;28;20059;-42
2023/04/20 02:05:01;;;;;;;5.13;3.45;;;;;;;;;;4964939;28;20427;-43
2023/04/20 02:07:27;;;;;;;4.43;3.55;;;;;;;;;;4965399;28;20094;-42
2023/04/20 02:09:52;;;;;;;8.75;3.80;;;;;;;;;;4968050;28;20034;-50
2023/04/20 02:12:17;;;;;;;10.07;3.38;;;;;;;;;;4962609;28;20571;-43
2023/04/20 02:14:43;;;;;;;13.73;6.10;;;;;;;;;;4967772;28;20041;-45
2023/04/20 02:17:09;;;;;;;4.10;3.35;;;;;;;;;;4962370;28;20039;-49
2023/04/20 02:19:35;;;;;;;4.45;3.58;;;;;;;;;;4966085;28;21330;-44
2023/04/20 02:22:00;;;;;;;4.35;3.35;;;;;;;;;;4965031;28;20043;-45
2023/04/20 02:24:26;;;;;;;3.95;3.38;;;;;;;;;;4966005;28;20039;-45
2023/04/20 02:26:51;;;;;;;6.55;3.78;;;;;;;;;;4968785;28;20093;-44
2023/04/20 02:29:16;;;;;;;4.97;3.17;;;;;;;;;;4960877;28;20030;-47
2023/04/20 02:31:42;;;;;;;5.75;3.33;;;;;;;;;;4951441;28;20468;-41
2023/04/20 02:34:08;;;;;;;5.88;3.70;;;;;;;;;;4951346;28;20114;-46
2023/04/20 02:36:34;;;;;;;7.15;3.45;;;;;;;;;;4948875;28;20094;-44
2023/04/20 02:38:59;;;;;;;8.00;3.45;;;;;;;;;;4949801;28;20027;-45
2023/04/20 02:41:25;;;;;;;4.75;3.55;;;;;;;;;;4948962;28;20504;-46
2023/04/20 02:43:50;;;;;;;5.32;3.55;;;;;;;;;;4949205;28;20047;-46
2023/04/20 02:46:16;;;;;;;5.05;3.30;;;;;;;;;;4957970;28;20142;-44
2023/04/20 02:48:42;;;;;;;6.45;3.83;;;;;;;;;;4967789;28;20427;-49
2023/04/20 02:51:07;;;;;;;4.93;3.50;;;;;;;;;;4967041;28;20026;-49
2023/04/20 02:53:33;;;;;;;5.80;3.47;;;;;;;;;;4964467;28;20027;-50
2023/04/20 02:55:59;;;;;;;4.53;2.85;;;;;;;;;;4967450;28;20488;-46
2023/04/20 02:58:25;;;;;;;3.58;3.28;;;;;;;;;;4966742;28;20490;-44
2023/04/20 03:00:50;;;;;;;4.93;3.22;;;;;;;;;;4966058;28;20519;-42
2023/04/20 03:03:16;;;;;;;3.58;3.17;;;;;;;;;;4964383;28;20046;-48
2023/04/20 03:05:42;;;;;;;3.45;3.03;;;;;;;;;;4958789;28;20050;-44
2023/04/20 03:08:08;;;;;;;3.33;3.03;;;;;;;;;;4963799;28;20397;-45
2023/04/20 03:10:33;;;;;;;4.57;3.03;;;;;;;;;;4966540;28;20141;-46
2023/04/20 03:12:59;;;;;;;3.25;2.95;;;;;;;;;;4963968;28;20034;-47
2023/04/20 03:15:24;;;;;;;6.65;3.72;;;;;;;;;;4962049;28;20123;-44
2023/04/20 03:17:50;;;;;;;4.35;3.60;;;;;;;;;;4965769;28;20126;-46
2023/04/20 03:20:15;;;;;;;5.45;3.10;;;;;;;;;;4964354;28;20039;-48
2023/04/20 03:22:41;;;;;;;3.47;3.17;;;;;;;;;;4966375;28;20153;-41
2023/04/20 03:25:06;;;;;;;12.27;4.07;;;;;;;;;;4965783;28;20027;-40
2023/04/20 03:27:32;;;;;;;4.05;3.38;;;;;;;;;;4959864;28;20049;-42
2023/04/20 03:29:57;;;;;;;6.25;3.63;;;;;;;;;;4966676;28;20046;-42
2023/04/20 03:32:22;;;;;;;5.95;3.08;;;;;;;;;;4963350;28;20047;-42
2023/04/20 03:34:49;;;;;;;3.63;3.33;;;;;;;;;;4964500;28;20113;-44
2023/04/20 03:37:14;;;;;;;4.82;3.17;;;;;;;;;;4963964;28;20480;-41
2023/04/20 03:39:40;;;;;;;4.53;3.70;;;;;;;;;;4964721;28;20062;-44
2023/04/20 03:42:05;;;;;;;4.65;3.35;;;;;;;;;;4961116;28;20045;-43
2023/04/20 03:44:31;;;;;;;5.05;3.30;;;;;;;;;;4966301;28;20063;-49
2023/04/20 03:46:56;;;;;;;6.85;3.50;;;;;;;;;;4947982;28;20400;-45
2023/04/20 03:49:23;;;;;;;3.88;3.08;;;;;;;;;;4947174;28;20110;-42
2023/04/20 03:51:48;;;;;;;4.45;3.60;;;;;;;;;;4961728;28;20096;-42
2023/04/20 03:54:14;;;;;;;5.63;3.85;;;;;;;;;;4963721;28;20479;-47
2023/04/20 03:56:39;;;;;;;3.83;3.28;;;;;;;;;;4966334;28;20066;-45
2023/04/20 03:59:05;;;;;;;3.55;3.10;;;;;;;;;;4966645;28;20499;-48
2023/04/20 04:01:30;;;;;;;4.95;3.33;;;;;;;;;;4963481;28;20063;-45
2023/04/20 04:03:56;;;;;;;5.65;3.63;;;;;;;;;;4970365;28;20058;-46
2023/04/20 04:06:21;;;;;;;4.82;3.40;;;;;;;;;;4966385;28;20402;-41
2023/04/20 04:08:47;;;;;;;8.30;3.33;;;;;;;;;;4965160;28;20038;-42
2023/04/20 04:11:12;;;;;;;4.78;4.05;;;;;;;;;;4962997;28;20407;-42
2023/04/20 04:13:38;;;;;;;8.60;3.88;;;;;;;;;;4963514;28;20110;-41
2023/04/20 04:16:03;;;;;;;8.18;4.47;;;;;;;;;;4963876;28;20047;-42
2023/04/20 04:18:31;;;;;;;9.68;3.83;;;;;;;;;;4965066;28;20038;-47
2023/04/20 04:20:57;;;;;;;4.82;3.15;;;;;;;;;;4964372;28;20074;-43
2023/04/20 04:23:23;;;;;;;6.00;3.20;;;;;;;;;;4968451;28;20019;-41
2023/04/20 04:25:48;;;;;;;6.50;3.50;;;;;;;;;;4967088;28;20046;-45
2023/04/20 04:28:15;;;;;;;8.23;3.25;;;;;;;;;;4966777;28;20086;-46
2023/04/20 04:30:41;;;;;;;6.68;3.50;;;;;;;;;;4962351;28;20081;-41
2023/04/20 04:33:06;;;;;;;3.63;3.33;;;;;;;;;;4962283;28;20388;-41
2023/04/20 04:35:33;;;;;;;5.35;3.17;;;;;;;;;;4966244;28;20049;-41
2023/04/20 04:37:58;;;;;;;5.93;3.58;;;;;;;;;;4964270;28;20492;-42
2023/04/20 04:40:24;;;;;;;5.05;2.85;;;;;;;;;;4963162;28;20045;-42
2023/04/20 04:42:50;;;;;;;6.40;3.85;;;;;;;;;;4963203;28;20117;-41
2023/04/20 04:45:17;;;;;;;6.03;3.40;;;;;;;;;;4958042;28;20415;-42
2023/04/20 04:47:42;;;;;;;5.88;3.47;;;;;;;;;;4960779;28;20038;-42
2023/04/20 04:50:09;;;;;;;5.55;3.45;;;;;;;;;;4964397;28;20061;-42
2023/04/20 04:52:35;;;;;;;3.90;2.97;;;;;;;;;;4960671;28;20031;-41
2023/04/20 04:55:02;;;;;;;6.03;3.13;;;;;;;;;;4965804;28;20047;-41
2023/04/20 04:57:28;;;;;;;4.68;2.92;;;;;;;;;;4960293;28;20046;-43
2023/04/20 04:59:53;;;;;;;4.03;3.30;;;;;;;;;;4965085;28;20034;-41
2023/04/20 05:02:19;;;;;;;3.92;3.22;;;;;;;;;;4965254;28;21772;-41
2023/04/20 05:04:44;;;;;;;5.20;2.85;;;;;;;;;;4964717;28;20475;-41
2023/04/20 05:07:10;;;;;;;6.70;2.80;;;;;;;;;;4966070;28;20109;-41
2023/04/20 05:09:36;;;;;;;9.25;3.35;;;;;;;;;;4965727;28;20081;-41
2023/04/20 05:12:02;;;;;;;3.00;2.67;;;;;;;;;;4965650;28;20051;-41
2023/04/20 05:14:30;;;;;;;6.78;3.28;;;;;;;;;;4966292;28;20097;-45
2023/04/20 05:16:55;;;;;;;3.95;2.72;;;;;;;;;;4964602;28;20459;-41
2023/04/20 05:19:21;;;;;;;4.55;2.90;;;;;;;;;;4963355;28;20058;-45
2023/04/20 05:21:46;;;;;;;2.88;2.67;;;;;;;;;;4962659;28;20089;-48
2023/04/20 05:24:11;;;;;;;4.38;2.63;;;;;;;;;;4961596;28;20026;-43
2023/04/20 05:26:37;;;;;;;3.72;2.92;;;;;;;;;;4967480;28;20415;-43
2023/04/20 05:29:02;;;;;;;4.63;3.00;;;;;;;;;;4968438;28;20080;-41
2023/04/20 05:31:28;;;;;;;3.83;3.10;;;;;;;;;;4969283;28;20030;-42
2023/04/20 05:33:53;;;;;;;3.28;2.97;;;;;;;;;;4969537;28;20039;-41
2023/04/20 05:36:19;;;;;;;4.40;3.05;;;;;;;;;;4965428;28;20054;-43
2023/04/20 05:38:45;;;;;;;13.32;3.50;;;;;;;;;;4970730;28;20030;-43
2023/04/20 05:41:10;;;;;;;4.07;2.67;;;;;;;;;;4962660;28;20042;-43
2023/04/20 05:43:35;;;;;;;3.13;2.60;;;;;;;;;;4964435;28;20031;-43
2023/04/20 05:46:01;;;;;;;3.30;2.67;;;;;;;;;;4970912;28;20050;-41
2023/04/20 05:48:26;;;;;;;4.53;2.65;;;;;;;;;;4968619;28;20067;-41
2023/04/20 05:50:52;;;;;;;3.47;2.75;;;;;;;;;;4963932;28;20749;-41
2023/04/20 05:53:18;;;;;;;6.72;3.25;;;;;;;;;;4964472;28;20037;-41
2023/04/20 05:55:43;;;;;;;5.72;3.35;;;;;;;;;;4964660;28;20038;-41
2023/04/20 05:58:09;;;;;;;3.67;3.25;;;;;;;;;;4968327;28;20038;-44
2023/04/20 06:00:34;;;;;;;5.40;3.10;;;;;;;;;;4963518;28;20038;-45
2023/04/20 06:03:00;;;;;;;6.78;3.25;;;;;;;;;;4968947;28;20039;-42
2023/04/20 06:05:25;;;;;;;4.47;3.28;;;;;;;;;;4965668;28;20491;-40
2023/04/20 06:07:50;;;;;;;4.10;3.00;;;;;;;;;;4969965;28;20559;-43
2023/04/20 06:10:16;;;;;;;5.65;3.10;;;;;;;;;;4963782;28;20058;-41
2023/04/20 06:12:41;;;;;;;7.25;3.10;;;;;;;;;;4965910;28;20907;-42
2023/04/20 06:15:09;;;;;;;4.82;3.10;;;;;;;;;;4967455;28;20027;-41
2023/04/20 06:17:39;;;;;;;3.08;2.70;;;;;;;;;;4965044;28;20097;-41
2023/04/20 06:20:09;;;;;;;3.65;2.92;;;;;;;;;;4962010;28;20039;-41
2023/04/20 06:22:36;;;;;;;5.05;3.97;;;;;;;;;;4968570;28;20057;-41
2023/04/20 06:25:02;;;;;;;6.20;2.95;;;;;;;;;;4967269;28;20031;-42
2023/04/20 06:27:27;;;;;;;7.43;2.78;;;;;;;;;;4968705;28;20031;-42
2023/04/20 06:29:53;;;;;;;2.80;2.60;;;;;;;;;;4965704;28;20019;-44
2023/04/20 06:32:19;;;;;;;5.20;3.50;;;;;;;;;;4967693;28;20476;-44
2023/04/20 06:34:46;;;;;;;7.22;2.97;;;;;;;;;;4966446;28;20046;-41
2023/04/20 06:37:12;;;;;;;7.05;3.28;;;;;;;;;;4966400;28;20047;-41
2023/04/20 06:39:37;;;;;;;5.75;3.13;;;;;;;;;;4967477;28;20077;-41
2023/04/20 06:42:02;;;;;;;5.47;3.05;;;;;;;;;;4964232;28;20078;-41
2023/04/20 06:44:28;;;;;;;4.32;2.60;;;;;;;;;;4966788;28;20026;-41
2023/04/20 06:46:53;;;;;;;7.80;2.67;;;;;;;;;;4965428;28;20067;-41
2023/04/20 06:49:18;;;;;;;4.72;2.97;;;;;;;;;;4962510;28;20046;-42
2023/04/20 06:51:44;;;;;;;4.00;3.20;;;;;;;;;;4967025;28;20035;-43
2023/04/20 06:54:09;;;;;;;5.07;2.90;;;;;;;;;;4965291;28;20055;-41
2023/04/20 06:56:35;;;;;;;8.02;4.07;;;;;;;;;;4966673;28;20559;-43
2023/04/20 06:59:00;;;;;;;3.95;3.03;;;;;;;;;;4962715;28;20031;-42
2023/04/20 07:01:25;;;;;;;4.20;2.90;;;;;;;;;;4964887;28;20053;-42
2023/04/20 07:03:51;;;;;;;6.70;3.35;;;;;;;;;;4966251;28;20479;-43
2023/04/20 07:06:16;;;;;;;6.88;3.03;;;;;;;;;;4963320;28;20105;-42
2023/04/20 07:08:42;;;;;;;7.20;3.03;;;;;;;;;;4969034;28;20098;-42
2023/04/20 07:11:07;;;;;;;4.53;3.25;;;;;;;;;;4964749;28;20423;-41
2023/04/20 07:13:32;;;;;;;8.20;3.10;;;;;;;;;;4962292;28;20033;-43
2023/04/20 07:15:58;;;;;;;4.75;2.90;;;;;;;;;;4968884;28;20073;-42
2023/04/20 07:18:23;;;;;;;8.68;3.58;;;;;;;;;;4965091;28;20522;-44
2023/04/20 07:20:49;;;;;;;4.53;3.22;;;;;;;;;;4966565;28;20042;-42
2023/04/20 07:23:14;;;;;;;9.40;3.80;;;;;;;;;;4965477;28;20027;-42
2023/04/20 07:25:39;;;;;;;5.68;3.22;;;;;;;;;;4965262;28;20061;-43
2023/04/20 07:28:05;;;;;;;4.47;3.15;;;;;;;;;;4967186;28;20097;-45
2023/04/20 07:30:30;;;;;;;3.63;3.03;;;;;;;;;;4961866;28;20035;-48
2023/04/20 07:32:56;;;;;;;4.93;3.10;;;;;;;;;;4963335;28;20057;-42
2023/04/20 07:35:21;;;;;;;3.38;2.97;;;;;;;;;;4967599;28;20027;-41
2023/04/20 07:37:47;;;;;;;3.30;2.70;;;;;;;;;;4964558;28;20918;-41
2023/04/20 07:40:13;;;;;;;4.72;3.22;;;;;;;;;;4967874;28;20035;-42
2023/04/20 07:42:38;;;;;;;7.10;2.90;;;;;;;;;;4963452;28;20022;-46
2023/04/20 07:45:05;;;;;;;4.13;3.13;;;;;;;;;;4966783;28;20066;-46
2023/04/20 07:47:31;;;;;;;3.42;2.60;;;;;;;;;;4963775;28;20399;-41
2023/04/20 07:49:57;;;;;;;4.93;2.70;;;;;;;;;;4966967;28;20041;-42
2023/04/20 07:52:25;;;;;;;4.45;2.88;;;;;;;;;;4965741;28;20035;-42
2023/04/20 07:54:56;;;;;;;5.63;2.92;;;;;;;;;;4960824;28;20042;-42
2023/04/20 07:57:22;;;;;;;3.88;2.83;;;;;;;;;;4965026;28;20045;-42
2023/04/20 07:59:48;;;;;;;3.40;2.65;;;;;;;;;;4965618;28;20416;-47
2023/04/20 08:02:15;;;;;;;3.85;2.42;;;;;;;;;;4965417;28;20105;-43
2023/04/20 08:04:43;;;;;;;10.65;2.70;;;;;;;;;;4968863;28;20034;-48
2023/04/20 08:07:08;;;;;;;3.92;2.55;;;;;;;;;;4964175;28;20097;-48
2023/04/20 08:09:34;;;;;;;4.00;2.30;;;;;;;;;;4969200;28;20424;-43
2023/04/20 08:12:00;;;;;;;6.15;2.70;;;;;;;;;;4963522;28;20083;-44
2023/04/20 08:14:26;;;;;;;6.03;2.55;;;;;;;;;;4961471;28;20117;-41
2023/04/20 08:16:51;;;;;;;4.75;2.75;;;;;;;;;;4963319;28;22500;-42
2023/04/20 08:19:17;;;;;;;7.70;2.80;;;;;;;;;;4962945;28;20106;-42
2023/04/20 08:21:42;;;;;;;7.32;3.17;;;;;;;;;;4967207;28;20038;-42
2023/04/20 08:24:08;;;;;;;3.38;3.00;;;;;;;;;;4962565;28;20062;-42
2023/04/20 08:26:34;;;;;;;3.35;3.05;;;;;;;;;;4964255;28;20066;-41
2023/04/20 08:29:01;;;;;;;5.55;3.50;;;;;;;;;;4968321;28;20058;-42
2023/04/20 08:31:26;;;;;;;5.18;4.20;;;;;;;;;;4965019;28;20043;-41
2023/04/20 08:33:52;;;;;;;9.90;4.45;;;;;;;;;;4964229;28;20031;-42
2023/04/20 08:36:18;;;;;;;6.75;4.75;;;;;;;;;;4967235;28;20129;-42
2023/04/20 08:38:43;;;;;;;11.57;4.55;;;;;;;;;;4964817;28;20121;-42
2023/04/20 08:41:13;;;;;;;10.82;5.40;;;;;;;;;;4965342;28;20043;-41
2023/04/20 08:43:39;;;;;;;7.75;3.88;;;;;;;;;;4967507;28;20082;-42
2023/04/20 08:46:04;;;;;;;8.65;4.28;;;;;;;;;;4964912;28;20034;-42
2023/04/20 08:48:35;;;;;;;6.32;4.22;;;;;;;;;;4963225;28;20467;-43
2023/04/20 08:51:02;;;;;;;7.25;3.85;;;;;;;;;;4966049;28;20047;-42
2023/04/20 08:53:27;;;;;;;10.90;3.78;;;;;;;;;;4966003;28;20053;-42
2023/04/20 08:55:55;;;;;;;5.57;4.05;;;;;;;;;;4962179;28;20499;-42
2023/04/20 08:58:22;;;;;;;11.52;4.10;;;;;;;;;;4967314;28;20054;-44
2023/04/20 09:00:48;;;;;;;8.85;3.88;;;;;;;;;;4967997;28;20053;-41
2023/04/20 09:03:13;;;;;;;8.80;3.55;;;;;;;;;;4968107;28;20031;-41
2023/04/20 09:05:39;;;;;;;9.23;3.83;;;;;;;;;;4967978;28;20051;-42
2023/04/20 09:08:05;;;;;;;12.70;3.55;;;;;;;;;;4968353;28;20077;-42
2023/04/20 09:10:41;;;;;;;7.43;3.40;;;;;;;;;;4961882;28;20066;-45
2023/04/20 09:13:07;;;;;;;6.85;3.75;;;;;;;;;;4961189;28;20041;-43
2023/04/20 09:15:33;;;;;;;5.28;3.35;;;;;;;;;;4969516;28;20101;-41
2023/04/20 09:17:58;;;;;;;9.25;3.50;;;;;;;;;;4970894;28;20034;-44
2023/04/20 09:20:31;;;;;;;5.97;3.10;;;;;;;;;;4965062;28;20121;-42
2023/04/20 09:22:57;;;;;;;13.52;3.80;;;;;;;;;;4967946;28;20030;-42
2023/04/20 09:25:25;;;;;;;6.78;3.88;;;;;;;;;;4967131;28;20105;-41
2023/04/20 09:28:00;;;;;;;9.82;3.38;;;;;;;;;;4967269;28;20037;-43
2023/04/20 09:30:40;;;;;;;4.55;2.97;;;;;;;;;;4963317;28;20050;-41
2023/04/20 09:33:10;;;;;;;8.07;3.28;;;;;;;;;;4967585;28;20023;-41
2023/04/20 09:35:39;;;;;;;8.77;3.00;;;;;;;;;;4968527;28;20064;-42
2023/04/20 09:38:05;;;;;;;6.18;3.40;;;;;;;;;;4966531;28;20488;-42
2023/04/20 09:40:32;;;;;;;5.20;2.97;;;;;;;;;;4966672;28;20074;-41
2023/04/20 09:43:01;;;;;;;4.78;3.20;;;;;;;;;;4966761;28;20038;-45
2023/04/20 09:45:27;;;;;;;6.72;3.13;;;;;;;;;;4961474;28;20050;-42
2023/04/20 09:47:54;;;;;;;4.18;2.88;;;;;;;;;;4969719;28;20027;-41
2023/04/20 09:50:20;;;;;;;6.90;3.50;;;;;;;;;;4968564;28;20023;-42
2023/04/20 09:52:48;;;;;;;13.80;3.58;;;;;;;;;;4967273;28;20304;-42
2023/04/20 09:55:14;;;;;;;9.73;3.03;;;;;;;;;;4964359;28;20670;-42
2023/04/20 09:57:40;;;;;;;10.27;3.42;;;;;;;;;;4967795;28;20058;-42
2023/04/20 10:00:06;;;;;;;5.95;3.20;;;;;;;;;;4983787;28;20148;-43
2023/04/20 10:02:32;;;;;;;10.50;3.35;;;;;;;;;;4963938;28;20059;-43
2023/04/20 10:05:00;;;;;;;8.15;3.80;;;;;;;;;;4966078;28;20105;-43
2023/04/20 10:07:28;;;;;;;6.03;3.92;;;;;;;;;;4962249;28;20045;-40
2023/04/20 10:10:05;;;;;;;5.22;3.08;;;;;;;;;;4966221;28;20031;-44
2023/04/20 10:12:30;;;;;;;6.50;3.00;;;;;;;;;;4964012;28;20586;-42
2023/04/20 10:14:56;;;;;;;6.00;2.78;;;;;;;;;;4964998;28;20047;-43
2023/04/20 10:17:32;;;;;;;6.10;2.85;;;;;;;;;;4965245;28;20050;-42
2023/04/20 10:19:58;;;;;;;4.20;3.00;;;;;;;;;;4969911;28;20053;-44
2023/04/20 10:22:32;;;;;;;6.95;2.95;;;;;;;;;;4964723;28;20492;-47
2023/04/20 10:25:12;;;;;;;9.18;3.13;;;;;;;;;;4965146;28;20026;-43
2023/04/20 10:27:38;;;;;;;3.65;2.92;;;;;;;;;;4964947;28;20584;-43
2023/04/20 10:30:10;;;;;;;4.05;2.65;;;;;;;;;;4965519;28;20027;-42
2023/04/20 10:32:35;;;;;;;;;;;;;;;;;;4967096;28;20051;-41
2023/04/20 10:35:06;;;;;;;11.10;3.05;;;;;;;;;;4966583;28;20858;-41
2023/04/20 10:37:31;;;;;;;4.03;2.85;;;;;;;;;;4965957;28;20047;-43
2023/04/20 10:39:57;;;;;;;7.72;2.63;;;;;;;;;;4966348;28;20502;-44
2023/04/20 10:42:25;;;;;;;7.32;2.53;;;;;;;;;;4963532;28;20050;-43
2023/04/20 10:44:51;;;;;;;5.85;2.63;;;;;;;;;;4964113;28;20396;-41
2023/04/20 10:47:26;;;;;;;4.10;2.30;;;;;;;;;;4966837;28;20039;-42
2023/04/20 10:49:51;;;;;;;9.35;2.50;;;;;;;;;;4967023;28;20031;-42
2023/04/20 10:52:16;;;;;;;6.97;2.33;;;;;;;;;;4966504;28;20035;-42
2023/04/20 10:54:42;;;;;;;9.98;3.13;;;;;;;;;;4967498;28;20507;-44
2023/04/20 10:57:07;;;;;;;11.30;2.85;;;;;;;;;;4962284;28;20039;-44
2023/04/20 10:59:37;;;;;;;6.38;2.40;;;;;;;;;;4966961;28;20042;-46
2023/04/20 11:02:07;;;;;;;6.88;3.00;;;;;;;;;;4966375;28;20046;-44
2023/04/20 11:04:33;;;;;;;3.47;2.10;;;;;;;;;;4964837;28;20022;-42
2023/04/20 11:07:09;;;;;;;6.43;2.20;;;;;;;;;;4967721;28;20046;-42
2023/04/20 11:09:36;;;;;;;3.67;2.63;;;;;;;;;;4963232;28;20105;-48
2023/04/20 11:12:13;;;;;;;8.15;3.10;;;;;;;;;;4964928;28;20042;-42
2023/04/20 11:14:51;;;;;;;2.55;2.20;;;;;;;;;;4965010;28;20046;-42
2023/04/20 11:17:17;;;;;;;7.63;2.45;;;;;;;;;;4966527;28;20039;-42
2023/04/20 11:19:42;;;;;;;5.22;2.63;;;;;;;;;;4966773;28;20537;-42
2023/04/20 11:22:08;;;;;;;6.22;2.47;;;;;;;;;;4967277;28;20055;-43
2023/04/20 11:24:34;;;;;;;3.15;2.15;;;;;;;;;;4983731;28;20084;-42
2023/04/20 11:27:01;;;;;;;9.43;2.50;;;;;;;;;;4960846;28;20130;-42
2023/04/20 11:29:34;;;;;;;14.10;3.65;;;;;;;;;;4964289;28;20055;-44
2023/04/20 11:32:02;;;;;;;3.15;2.25;;;;;;;;;;4949929;28;20536;-44
2023/04/20 11:34:28;;;;;;;5.55;2.22;;;;;;;;;;4949724;29;20046;-46
2023/04/20 11:36:55;;;;;;;5.47;2.60;;;;;;;;;;4959415;28;20043;-42
2023/04/20 11:39:29;;;;;;;7.72;2.58;;;;;;;;;;4966661;28;20031;-41
2023/04/20 11:41:58;;;;;;;2.35;2.05;;;;;;;;;;4963548;28;20412;-44
2023/04/20 11:44:24;;;;;;;4.13;2.20;;;;;;;;;;4963301;28;20031;-42
2023/04/20 11:46:53;;;;;;;4.30;2.25;;;;;;;;;;4966462;28;20057;-46
2023/04/20 11:49:19;;;;;;;9.70;2.85;;;;;;;;;;4964609;28;20415;-45
2023/04/20 11:51:47;;;;;;;8.23;2.25;;;;;;;;;;4965882;28;20097;-45
2023/04/20 11:54:13;;;;;;;2.42;2.22;;;;;;;;;;4962901;28;20038;-47
2023/04/20 11:56:40;;;;;;;3.38;2.60;;;;;;;;;;4960935;28;20047;-46
2023/04/20 11:59:07;;;;;;;12.02;4.60;;;;;;;;;;4966203;28;20042;-46
2023/04/20 12:01:32;;;;;;;4.43;2.67;;;;;;;;;;4965752;28;20053;-42
2023/04/20 12:04:00;;;;;;;5.05;2.30;;;;;;;;;;4965892;28;21896;-44
2023/04/20 12:06:27;;;;;;;6.05;2.17;;;;;;;;;;4959450;28;20051;-43
2023/04/20 12:08:54;;;;;;;5.13;1.98;;;;;;;;;;4963277;28;20058;-43
2023/04/20 12:11:19;;;;;;;5.28;2.00;;;;;;;;;;4964445;28;20038;-42
2023/04/20 12:13:44;;;;;;;7.95;2.47;;;;;;;;;;4966207;28;20037;-42
2023/04/20 12:16:10;;;;;;;6.68;2.63;;;;;;;;;;4968474;28;20039;-41
2023/04/20 12:18:35;;;;;;;4.00;2.50;;;;;;;;;;4963464;28;20103;-44
2023/04/20 12:21:01;;;;;;;3.28;2.30;;;;;;;;;;4963086;28;20038;-45
2023/04/20 12:23:26;;;;;;;4.78;2.90;;;;;;;;;;4966485;28;20034;-43
2023/04/20 12:25:52;;;;;;;2.65;2.35;;;;;;;;;;4966637;28;20039;-42
2023/04/20 12:28:17;;;;;;;6.18;2.08;;;;;;;;;;4965006;28;20043;-42
2023/04/20 12:30:43;;;;;;;11.10;3.35;;;;;;;;;;4965393;28;20061;-42
2023/04/20 12:33:09;;;;;;;5.07;2.67;;;;;;;;;;4968935;28;20463;-42
2023/04/20 12:35:34;;;;;;;6.20;2.72;;;;;;;;;;4968517;28;20440;-45
2023/04/20 12:38:00;;;;;;;8.40;1.98;;;;;;;;;;4969863;28;20035;-46
2023/04/20 12:40:25;;;;;;;4.22;2.15;;;;;;;;;;4969447;28;20044;-42
2023/04/20 12:42:50;;;;;;;6.88;2.22;;;;;;;;;;4969821;28;20432;-42
2023/04/20 12:45:16;;;;;;;2.25;1.92;;;;;;;;;;4966950;28;20035;-46
2023/04/20 12:47:41;;;;;;;5.10;2.40;;;;;;;;;;4951413;28;20019;-42
2023/04/20 12:50:07;;;;;;;5.75;2.20;;;;;;;;;;4944903;28;20103;-43
2023/04/20 12:52:33;;;;;;;7.43;2.20;;;;;;;;;;4971022;28;20035;-42
2023/04/20 12:55:00;;;;;;;3.15;2.17;;;;;;;;;;4963105;28;20435;-45
2023/04/20 12:57:25;;;;;;;5.57;2.15;;;;;;;;;;4966099;28;20047;-46
2023/04/20 12:59:51;;;;;;;5.25;1.98;;;;;;;;;;4970150;28;20039;-43
2023/04/20 13:02:17;;;;;;;7.70;2.47;;;;;;;;;;4966995;28;20074;-43
2023/04/20 13:04:42;;;;;;;2.67;1.70;;;;;;;;;;4962693;28;20031;-42
2023/04/20 13:07:08;;;;;;;3.75;1.75;;;;;;;;;;4965416;28;20406;-42
2023/04/20 13:09:33;;;;;;;4.55;1.45;;;;;;;;;;4964999;28;20042;-41
2023/04/20 13:11:58;;;;;;;2.28;1.73;;;;;;;;;;4969034;28;20661;-42
2023/04/20 13:14:25;;;;;;;3.33;1.75;;;;;;;;;;4969369;28;20161;-46
2023/04/20 13:16:50;;;;;;;4.95;1.95;;;;;;;;;;4969915;28;20031;-42
2023/04/20 13:19:15;;;;;;;8.00;1.92;;;;;;;;;;4967631;28;20495;-45
2023/04/20 13:21:41;;;;;;;3.42;1.70;;;;;;;;;;4965145;28;20075;-46
2023/04/20 13:24:06;;;;;;;6.35;1.88;;;;;;;;;;4967019;28;20030;-42
2023/04/20 13:26:32;;;;;;;3.97;1.80;;;;;;;;;;4965941;28;20105;-43
2023/04/20 13:28:57;;;;;;;5.78;2.17;;;;;;;;;;4964708;28;20448;-46
2023/04/20 13:31:26;;;;;;;2.63;1.52;;;;;;;;;;4970226;28;20526;-46
2023/04/20 13:33:55;;;;;;;5.60;2.00;;;;;;;;;;4964494;28;20058;-42
2023/04/20 13:36:22;;;;;;;3.50;2.08;;;;;;;;;;4967791;28;20035;-47
2023/04/20 13:38:47;;;;;;;4.05;1.80;;;;;;;;;;4966466;28;20130;-46
2023/04/20 13:41:16;;;;;;;2.75;1.85;;;;;;;;;;4963710;28;20130;-43
2023/04/20 13:43:42;;;;;;;4.65;1.90;;;;;;;;;;4966311;28;20118;-43
2023/04/20 13:46:08;;;;;;;3.95;2.20;;;;;;;;;;4969266;28;20129;-44
2023/04/20 13:48:33;;;;;;;4.63;1.85;;;;;;;;;;4969075;28;20578;-47
2023/04/20 13:50:59;;;;;;;4.95;2.30;;;;;;;;;;4967026;28;20046;-43
2023/04/20 13:53:24;;;;;;;3.50;1.70;;;;;;;;;;4967577;28;20057;-43
2023/04/20 13:55:49;;;;;;;3.72;2.33;;;;;;;;;;4968296;28;20066;-45
2023/04/20 13:58:15;;;;;;;2.85;1.73;;;;;;;;;;4967375;28;20035;-42
2023/04/20 14:00:40;;;;;;;10.25;2.28;;;;;;;;;;4968324;28;20043;-42
2023/04/20 14:03:08;;;;;;;3.50;2.28;;;;;;;;;;4966405;28;20125;-42
2023/04/20 14:05:33;;;;;;;7.88;2.45;;;;;;;;;;4965427;28;20059;-42
2023/04/20 14:08:00;;;;;;;5.88;1.98;;;;;;;;;;4968154;28;20035;-47
2023/04/20 14:10:26;;;;;;;2.05;1.65;;;;;;;;;;4968980;28;20058;-46
2023/04/20 14:12:52;;;;;;;4.18;1.90;;;;;;;;;;4968835;28;20038;-46
2023/04/20 14:15:17;;;;;;;4.97;1.77;;;;;;;;;;4965909;28;20034;-43
2023/04/20 14:17:43;;;;;;;6.45;1.77;;;;;;;;;;4964328;28;20034;-46
2023/04/20 14:20:09;;;;;;;5.85;1.77;;;;;;;;;;4965153;28;20149;-48
2023/04/20 14:22:35;;;;;;;2.50;1.58;;;;;;;;;;4970297;28;20031;-49
2023/04/20 14:25:05;;;;;;;7.05;1.83;;;;;;;;;;4965493;28;20031;-45
2023/04/20 14:27:30;;;;;;;3.03;1.65;;;;;;;;;;4966831;28;20081;-42
2023/04/20 14:29:56;;;;;;;3.25;1.88;;;;;;;;;;4968374;28;20499;-45
2023/04/20 14:32:22;;;;;;;5.10;1.90;;;;;;;;;;4966700;28;20035;-44
2023/04/20 14:34:47;;;;;;;4.35;1.92;;;;;;;;;;4966635;28;20031;-43
2023/04/20 14:37:12;;;;;;;10.45;2.20;;;;;;;;;;4966146;28;20039;-49